Date,TemperatureHighF,TemperatureAvgF,TemperatureLowF,DewpointHighF,DewpointAvgF,DewpointLowF,HumidityHigh,HumidityAvg,HumidityLow,PressureMaxIn,PressureMinIn,WindSpeedMaxMPH,WindSpeedAvgMPH,GustSpeedMaxMPH,PrecipitationSumIn
2014-1-1,47.3,44.1,41.1,45.4,41.8,39.2,95,91,84,29.72,29.32,29,12,29,0.14
2014-1-2,49.4,47.6,44.3,47.4,45.2,41.6,95,92,86,29.60,29.26,23,11,23,0.24
2014-1-3,51.9,47.0,42.4,48.4,44.1,40.3,96,90,80,29.58,29.43,46,15,46,0.14
2014-1-4,48.5,46.1,43.1,45.3,42.8,40.1,93,88,84,29.65,29.32,31,10,31,0.01
2014-1-5,48.0,44.1,40.8,45.2,40.5,38.1,92,87,80,29.75,29.35,22,11,22,0.01
2014-1-6,54.7,49.0,42.7,51.2,46.5,39.3,96,91,85,29.58,29.46,30,15,30,0.06
2014-1-7,53.7,50.9,48.1,47.2,45.7,43.5,92,82,75,29.82,29.57,38,17,38,0.18
2014-1-8,51.5,47.8,45.6,47.4,45.5,43.4,98,92,83,30.00,29.80,29,13,29,0.28
2014-1-9,52.6,48.2,43.8,50.3,45.6,41.2,97,91,84,29.88,29.51,39,16,39,0.46
2014-1-10,48.6,45.6,44.0,43.9,41.9,39.9,92,87,81,29.97,29.81,28,14,28,0.00
2014-1-11,46.8,43.7,41.9,44.5,40.1,37.0,96,87,74,30.20,29.88,31,12,31,0.11
2014-1-12,45.6,39.9,34.1,40.3,36.2,31.8,94,87,79,30.25,29.87,17,3,17,0.00
2014-1-13,48.3,43.3,37.2,45.8,40.7,32.8,100,90,83,29.87,29.70,26,9,26,0.03
2014-1-14,43.7,41.2,38.4,42.2,39.7,37.2,96,94,84,29.74,29.62,14,3,14,0.05
2014-1-15,43.8,41.1,38.0,43.0,39.0,35.9,97,92,82,29.75,29.53,18,8,18,0.15
2014-1-16,47.8,44.9,42.1,46.7,43.9,40.8,98,96,94,29.53,29.36,20,7,20,0.23
2014-1-17,48.2,45.0,42.1,43.4,42.3,40.8,95,90,81,29.49,29.37,20,8,20,0.02
2014-1-18,47.6,44.6,40.7,44.2,41.5,37.6,96,89,81,29.52,29.45,13,3,13,0.00
2014-1-19,43.9,42.1,40.5,41.5,39.3,37.2,93,90,86,29.61,29.41,14,3,14,0.02
2014-1-20,42.4,39.3,36.9,40.7,38.0,35.6,100,95,93,29.84,29.61,12,3,12,0.04
2014-1-21,40.7,38.4,36.8,39.9,37.4,35.8,97,96,95,29.89,29.84,7,0,7,0.02
2014-1-22,39.3,37.8,36.0,38.5,35.5,33.1,97,91,84,29.91,29.84,18,5,18,0.13
2014-1-23,42.3,39.1,37.1,41.8,38.2,36.1,98,96,92,29.92,29.75,18,5,18,0.46
2014-1-24,43.9,41.1,38.8,42.5,39.4,36.8,96,93,88,30.07,29.81,20,2,20,0.06
2014-1-25,43.9,39.3,37.5,40.9,36.7,34.2,96,90,84,30.07,29.59,36,8,36,0.32
2014-1-26,44.7,42.4,38.0,42.9,38.6,36.3,96,87,80,29.85,29.12,41,12,41,0.39
2014-1-27,44.6,40.5,38.0,40.4,36.7,33.8,94,86,76,29.30,29.16,31,11,31,0.08
2014-1-28,43.3,40.3,37.0,37.9,36.3,33.8,94,86,76,29.45,29.29,22,11,22,0.01
2014-1-29,39.8,33.2,29.6,33.9,30.4,27.0,96,90,80,29.66,29.45,23,11,23,0.00
2014-1-30,35.5,31.9,28.5,31.8,29.1,26.2,92,90,85,29.76,29.66,15,7,15,0.00
2014-1-31,42.9,36.4,28.1,39.3,33.7,26.6,95,90,81,29.78,29.40,20,5,20,0.04